Point Lay Lrrs Airport Point Lay US
ICAO: PPIZ
IATA:
Category: Medium
Scheduled Services:

Elevation: 22 ft
TransAlt. 18000 ft.

Airport Communications:
AWOS 3:135.65
ANCHORAGE CNTR:119.65
CTAF:122.4
FAIRBANKS RDO:122.4
MISC:122.8
UNICOM:126.2

PPIZ Zoom In..

If you have problems with the map follow the link
https://www.worldairports.se/pages/airport.php?
ICAO=PPIZ

Runways:

(A) RW 05 length 4500 ft width 100 ft
---- / hdg 54

(B) RW 23 length 4500 ft width 100 ft
---- / hdg 234

Location; PPIZ
Day. 19 / Time. 21.24 Zulu
* Altimeter: 29.50
* Temperature: -23° c. 9.4°f.
* Wind from: 360° Speed 08 kn.
Dewpoint: -26° c.
Visibility: 3 Statute Miles.
Clouds: Broken 2100 ft.
Conditions: Light Snow.

PPIZ 192124Z AUTO 36008KT 3SM -SN BKN021 M23/M26 A2950 RMK AO2 P0000 FZRANO


Wind From 360°
Speed 08 kn.

 
 
jpsmedia worldairports.se 2020   terms of use